Latest Weather Observations for Milingimbi

IDD60801

Issued at 12:31 pm CST Saturday 25 June 2016 (issued every 30 minutes, with the page automatically refreshed every 10 minutes)

About weather observations | Map of weather stations | Latest weather observations for NT | Other Formats
Station Details ID: 014404 Name: MILINGIMBI AIRPORT Lat: -12.09 Lon: 134.89 Height: 15.0 m
Data from the previous 72 hours. | See also: Recent months at Milingimbi
Date/Time
CST
Temp
°C
App
Temp
°C
Dew
Point
°C
Rel
Hum
%
Delta-T
°C
Wind Press
QNH
hPa
Press
MSL
hPa
Rain since
9am
mm
Dir  Spd
km/h
Gust
km/h
Spd
kts
Gust
kts
25/12:30pm 31.8 32.4 21.0 52 7.2 ESE 19 32 10 17 1011.7 - 0.0
25/12:00pm 31.8 32.7 21.6 54 6.9 ESE 19 32 10 17 1012.0 1011.9 0.0
25/11:30am 31.4 31.3 20.7 53 7.1 ESE 22 33 12 18 1012.4 - 0.0
25/11:00am 31.9 31.8 20.8 51 7.4 ESE 22 32 12 17 1012.7 - 0.0
25/10:30am 30.2 29.7 20.7 56 6.3 ESE 24 32 13 17 1013.0 - 0.0
25/10:00am 29.5 30.3 21.7 63 5.2 ESE 20 26 11 14 1013.3 - 0.0
25/09:30am 28.8 30.1 21.6 65 4.8 ESE 17 22 9 12 1013.3 - 0.0
25/09:00am 28.5 29.7 21.5 66 4.7 SE 17 24 9 13 1013.1 1013.0 0.0
25/08:30am 26.8 28.6 21.8 74 3.3 SE 15 20 8 11 1012.8 - 0.0
25/08:00am 25.5 28.6 22.2 82 2.2 SSE 9 13 5 7 1012.6 - 0.0
25/07:30am 24.2 27.4 22.3 89 1.3 SSE 9 13 5 7 1012.4 - 0.0
25/07:00am 23.7 27.3 22.1 91 1.1 S 6 9 3 5 1012.4 - 0.0
25/06:30am 23.6 26.9 21.9 90 1.1 S 7 9 4 5 1012.0 - 0.0
25/06:00am 23.8 27.3 22.1 90 1.1 SSE 7 9 4 5 1011.8 1011.7 0.0
25/05:30am 24.0 27.5 22.1 89 1.3 SSE 7 9 4 5 1011.7 - 0.0
25/05:00am 24.2 27.4 22.3 89 1.3 SSE 9 11 5 6 1011.6 - 0.0
25/04:30am 24.4 27.6 22.3 88 1.4 SSE 9 13 5 7 1011.4 - 0.0
25/04:00am 24.5 28.0 22.2 87 1.5 SSE 7 9 4 5 1011.3 - 0.0
25/03:30am 24.7 27.8 22.2 86 1.7 SSE 9 11 5 6 1011.2 - 0.0
25/03:00am 25.1 28.2 22.2 84 1.9 SSE 9 15 5 8 1011.3 1011.2 0.0
25/02:30am 25.4 27.8 22.3 83 2.1 SSE 13 17 7 9 1011.5 - 0.0
25/02:00am 25.7 28.2 22.4 82 2.2 SSE 13 17 7 9 1011.8 - 0.0
25/01:30am 26.1 27.9 22.6 81 2.4 SE 17 22 9 12 1012.1 - 0.0
25/01:00am 26.3 28.5 22.6 80 2.5 SE 15 24 8 13 1012.0 - 0.0
25/12:30am 26.5 27.9 22.6 79 2.6 SE 19 28 10 15 1012.1 - 0.0
25/12:00am 26.8 27.6 22.4 77 3.0 SE 22 30 12 16 1012.1 1012.0 0.0
 
Date/Time
CST
Temp
°C
App
Temp
°C
Dew
Point
°C
Rel
Hum
%
Delta-T
°C
Wind Press
QNH
hPa
Press
MSL
hPa
Rain since
9am
mm
Dir  Spd
km/h
Gust
km/h
Spd
kts
Gust
kts
24/11:30pm 27.0 27.7 22.2 75 3.2 ESE 22 30 12 16 1012.2 - 0.0
24/11:00pm 27.3 27.8 22.0 73 3.6 ESE 22 35 12 19 1012.1 - 0.0
24/10:30pm 27.5 28.4 21.5 70 4.0 ESE 19 32 10 17 1012.1 - 0.0
24/10:00pm 27.8 28.7 21.6 69 4.1 ESE 19 30 10 16 1012.0 - 0.0
24/09:30pm 28.1 30.1 22.3 70 3.9 ESE 15 26 8 14 1011.9 - 0.0
24/09:00pm 28.3 30.4 22.5 71 3.9 ESE 15 22 8 12 1011.6 1011.5 0.0
24/08:30pm 28.5 30.6 22.5 70 4.1 ESE 15 24 8 13 1011.2 - 0.0
24/08:00pm 28.1 31.3 23.0 74 3.5 ESE 11 15 6 8 1010.6 - 0.0
24/07:30pm 28.3 31.2 23.2 74 3.5 SE 13 17 7 9 1010.1 - 0.0
24/07:00pm 28.1 31.7 23.7 77 3.0 SSE 11 13 6 7 1009.8 - 0.0
24/06:30pm 28.5 32.3 23.4 74 3.5 ESE 9 13 5 7 1009.9 - 0.0
24/06:00pm 29.1 33.2 23.3 71 4.0 E 7 13 4 7 1010.0 1009.9 0.0
24/05:30pm 29.4 32.9 22.9 68 4.4 ENE 9 15 5 8 1010.1 - 0.0
24/05:00pm 29.8 32.7 22.5 65 5.0 ENE 11 20 6 11 1010.1 - 0.0
24/04:30pm 30.2 33.2 22.6 63 5.2 NE 11 19 6 10 1010.1 - 0.0
24/04:00pm 30.8 33.3 22.4 61 5.7 NE 13 20 7 11 1009.9 - 0.0
24/03:30pm 31.8 35.0 23.1 60 6.0 NNE 11 17 6 9 1010.1 - 0.0
24/03:00pm 31.0 33.3 22.0 58 6.1 NE 13 24 7 13 1010.4 1010.3 0.0
24/02:30pm 30.5 33.2 22.1 61 5.7 NE 11 19 6 10 1010.5 - 0.0
24/02:00pm 30.5 33.4 21.8 59 5.9 NE 9 17 5 9 1010.8 - 0.0
24/01:30pm 30.8 33.1 22.1 59 5.9 ENE 13 17 7 9 1010.9 - 0.0
24/01:00pm 30.7 32.5 21.8 59 6.0 E 15 20 8 11 1011.3 - 0.0
24/12:30pm 30.6 32.8 21.9 59 5.9 E 13 20 7 11 1011.9 - 0.0
24/12:00pm 30.5 32.3 21.8 59 5.9 ESE 15 24 8 13 1012.3 1012.2 0.0
24/11:30am 30.6 32.6 22.2 61 5.7 ESE 15 24 8 13 1012.7 - 0.0
24/11:00am 29.9 31.6 21.6 61 5.6 SE 15 24 8 13 1012.8 - 0.0
24/10:30am 29.4 31.5 22.4 66 4.8 SE 15 20 8 11 1013.0 - 0.0
24/10:00am 27.1 29.0 22.1 74 3.4 SE 15 20 8 11 1013.2 - 0.0
24/09:30am 26.3 28.7 22.2 78 2.8 SE 13 19 7 10 1013.3 - 0.0
24/09:00am 26.1 28.2 22.4 80 2.5 SE 15 22 8 12 1013.3 1013.2 0.0
24/08:30am 25.0 27.9 22.5 86 1.7 SE 11 17 6 9 1013.1 - 0.0
24/08:00am 23.8 26.9 22.1 90 1.1 SSE 9 13 5 7 1012.4 - 0.0
24/07:30am 23.6 26.6 22.0 91 1.1 SE 9 15 5 8 1012.0 - 0.0
24/07:00am 23.5 26.2 22.1 92 0.9 S 11 17 6 9 1011.6 - 0.0
24/06:30am 23.4 26.3 21.8 91 1.1 S 9 11 5 6 1011.2 - 0.0
24/06:00am 23.5 26.5 21.9 91 1.1 S 9 11 5 6 1011.0 1010.9 0.0
24/05:30am 23.7 26.7 22.0 90 1.1 S 9 11 5 6 1010.9 - 0.0
24/05:00am 23.7 26.7 22.0 90 1.1 S 9 11 5 6 1010.6 - 0.0
24/04:30am 23.8 27.3 21.9 89 1.3 S 6 7 3 4 1010.7 - 0.0
24/04:00am 23.9 27.1 21.6 87 1.5 SSE 7 9 4 5 1010.9 - 0.0
24/03:30am 24.2 27.4 21.7 86 1.7 SSE 7 9 4 5 1011.1 - 0.0
24/03:00am 24.5 27.7 21.6 84 1.9 S 7 11 4 6 1011.1 1011.0 0.0
24/02:30am 25.0 27.6 21.9 83 2.1 SSE 11 15 6 8 1011.1 - 0.0
24/02:00am 25.2 27.7 21.7 81 2.3 SSE 11 17 6 9 1011.2 - 0.0
24/01:30am 25.5 28.3 21.6 79 2.6 SSE 9 15 5 8 1011.4 - 0.0
24/01:00am 25.9 28.4 21.8 78 2.7 SSE 11 17 6 9 1011.7 - 0.0
24/12:30am 26.5 28.3 21.9 76 3.1 SE 15 20 8 11 1011.6 - 0.0
24/12:00am 26.8 29.0 21.8 74 3.3 ESE 13 20 7 11 1011.5 1011.4 0.0
 
Date/Time
CST
Temp
°C
App
Temp
°C
Dew
Point
°C
Rel
Hum
%
Delta-T
°C
Wind Press
QNH
hPa
Press
MSL
hPa
Rain since
9am
mm
Dir  Spd
km/h
Gust
km/h
Spd
kts
Gust
kts
23/11:30pm 27.0 29.3 22.0 74 3.4 ESE 13 19 7 10 1011.7 - 0.0
23/11:00pm 27.3 30.3 22.0 73 3.6 E 9 15 5 8 1011.7 - 0.0
23/10:30pm 27.5 30.6 22.2 73 3.6 E 9 13 5 7 1011.6 - 0.0
23/10:00pm 27.9 31.1 22.4 72 3.7 E 9 17 5 9 1011.7 - 0.0
23/09:30pm 28.1 31.2 22.8 73 3.6 E 11 17 6 9 1011.4 - 0.0
23/09:00pm 28.0 32.0 23.8 78 2.9 E 9 13 5 7 1011.1 1011.0 0.0
23/08:30pm 27.7 31.9 23.5 78 2.9 ENE 7 9 4 5 1010.9 - 0.0
23/08:00pm 27.8 32.0 23.4 77 3.0 NE 7 9 4 5 1010.5 - 0.0
23/07:30pm 27.7 31.6 22.9 75 3.3 NE 7 11 4 6 1010.1 - 0.0
23/07:00pm 28.0 31.8 22.7 73 3.6 NE 7 9 4 5 1009.7 - 0.0
23/06:30pm 28.5 31.7 22.3 69 4.2 NE 9 15 5 8 1009.5 - 0.0
23/06:00pm 28.9 32.2 21.9 66 4.7 NE 7 9 4 5 1009.1 1009.0 0.0
23/05:30pm 29.7 33.2 22.2 64 5.1 NE 7 9 4 5 1008.7 - 0.0
23/05:00pm 29.9 33.2 21.8 62 5.5 N 7 13 4 7 1008.6 - 0.0
23/04:30pm 30.4 33.8 22.0 60 5.7 N 7 15 4 8 1008.5 - 0.0
23/04:00pm 31.4 34.1 21.3 55 6.8 NE 9 11 5 6 1008.4 - 0.0
23/03:30pm 31.4 34.2 21.6 56 6.6 ENE 9 13 5 7 1008.5 - 0.0
23/03:00pm 32.0 34.2 21.2 52 7.3 ENE 11 19 6 10 1008.4 1008.3 0.0
23/02:30pm 31.9 33.5 20.8 51 7.4 E 13 19 7 10 1008.8 - 0.0
23/02:00pm 31.8 33.0 20.7 51 7.4 E 15 22 8 12 1009.0 - 0.0
23/01:30pm 32.5 33.7 20.7 49 7.9 ESE 15 22 8 12 1009.4 - 0.0
23/01:00pm 32.2 32.7 20.1 48 8.0 E 17 24 9 13 1010.1 - 0.0
23/12:30pm 32.4 33.3 20.0 48 8.2 E 15 26 8 14 1010.4 - 0.0
23/12:00pm 31.9 32.6 20.5 51 7.6 ESE 17 24 9 13 1010.9 1010.8 0.0
23/11:30am 31.7 32.0 20.3 50 7.6 ESE 19 24 10 13 1011.5 - 0.0
23/11:00am 31.1 32.2 20.4 53 7.1 SSE 15 22 8 12 1011.8 - 0.0
23/10:30am 30.5 31.6 20.4 54 6.7 SSE 15 20 8 11 1011.9 - 0.0
23/10:00am 29.0 30.6 20.7 61 5.5 ESE 13 17 7 9 1012.3 - 0.0
23/09:30am 28.2 29.8 20.7 63 5.0 SSE 13 20 7 11 1012.3 - 0.0
23/09:00am 26.8 28.3 20.6 69 4.1 SSE 13 20 7 11 1012.4 1012.3 0.0
23/08:30am 24.7 25.9 19.8 74 3.2 S 13 20 7 11 1012.3 - 0.0
23/08:00am 23.0 24.4 18.7 77 2.7 S 9 13 5 7 1011.7 - 0.0
23/07:30am 22.4 24.2 18.8 80 2.3 S 7 11 4 6 1011.3 - 0.0
23/07:00am 22.1 23.9 18.7 81 2.1 S 7 9 4 5 1011.1 - 0.0
23/06:30am 22.1 24.1 18.7 81 2.1 S 6 7 3 4 1011.0 - 0.0
23/06:00am 22.4 23.9 18.8 80 2.3 SSE 9 11 5 6 1010.7 1010.6 0.0
23/05:30am 22.4 23.8 18.6 79 2.4 SSE 9 11 5 6 1010.7 - 0.0
23/05:00am 22.6 24.3 18.6 78 2.5 SSE 7 11 4 6 1010.7 - 0.0
23/04:30am 22.6 24.3 18.6 78 2.5 SE 7 9 4 5 1010.5 - 0.0
23/04:00am 22.8 24.0 18.3 76 2.8 SSE 9 11 5 6 1010.3 - 0.0
23/03:30am 23.1 23.6 18.4 75 3.0 SSE 13 15 7 8 1010.4 - 0.0
23/03:00am 23.3 23.9 18.6 75 3.0 SSE 13 17 7 9 1010.4 1010.3 0.0
23/02:30am 23.6 24.4 19.1 76 2.9 SE 13 19 7 10 1010.6 - 0.0
23/02:00am 23.6 24.8 19.1 76 2.9 SE 11 17 6 9 1011.0 - 0.0
23/01:30am 24.0 25.0 19.5 76 2.9 SSE 13 15 7 8 1011.3 - 0.0
23/01:00am 24.3 25.5 19.8 76 2.9 SSE 13 17 7 9 1011.5 - 0.0
23/12:30am 24.6 26.0 20.3 77 2.8 SE 13 17 7 9 1012.0 - 0.0
23/12:00am 25.0 26.1 20.5 76 2.9 SE 15 19 8 10 1012.2 1012.1 0.0
 
Date/Time
CST
Temp
°C
App
Temp
°C
Dew
Point
°C
Rel
Hum
%
Delta-T
°C
Wind Press
QNH
hPa
Press
MSL
hPa
Rain since
9am
mm
Dir  Spd
km/h
Gust
km/h
Spd
kts
Gust
kts
22/11:30pm 25.3 26.4 20.5 75 3.1 SSE 15 20 8 11 1012.2 - 0.0
22/11:00pm 25.7 26.9 20.7 74 3.3 SE 15 20 8 11 1012.1 - 0.0
22/10:30pm 26.3 27.4 21.3 74 3.3 SE 17 22 9 12 1012.2 - 0.0
22/10:00pm 26.7 27.9 21.5 73 3.5 ESE 17 26 9 14 1011.9 - 0.0
22/09:30pm 27.1 28.3 21.4 71 3.8 ESE 17 26 9 14 1011.7 - 0.0
22/09:00pm 27.5 28.6 21.3 69 4.1 ESE 17 26 9 14 1011.3 1011.2 0.0
22/08:30pm 27.7 30.1 22.2 72 3.7 E 13 22 7 12 1011.0 - 0.0
22/08:00pm 26.6 30.4 22.7 79 2.6 NE 7 9 4 5 1010.6 - 0.0
22/07:30pm 26.6 31.1 21.6 74 3.3 CALM 0 0 0 0 1009.9 - 0.0
22/07:00pm 27.5 31.2 21.5 70 4.0 NE 4 6 2 3 1009.5 - 0.0
22/06:30pm 28.3 32.1 21.6 67 4.5 NNE 4 7 2 4 1009.1 - 0.0
22/06:00pm 29.0 32.1 21.5 64 5.0 NE 7 9 4 5 1008.8 1008.7 0.0
22/05:30pm 29.8 32.2 20.9 59 5.9 NE 9 17 5 9 1008.7 - 0.0
22/05:00pm 31.2 33.6 20.8 54 6.9 ENE 9 15 5 8 1008.4 - 0.0
22/04:30pm 31.8 33.6 20.4 51 7.6 E 11 17 6 9 1008.3 - 0.0
22/04:00pm 31.7 33.3 20.0 50 7.7 E 11 19 6 10 1008.2 - 0.0
22/03:30pm 31.7 32.8 19.7 49 7.9 E 13 20 7 11 1008.4 - 0.0
22/03:00pm 31.8 32.6 19.8 49 7.9 ESE 15 24 8 13 1008.6 1008.5 0.0
22/02:30pm 32.1 32.6 20.0 48 8.0 ESE 17 22 9 12 1008.9 - 0.0
22/02:00pm 32.0 33.2 19.9 48 8.0 E 13 20 7 11 1009.3 - 0.0
22/01:30pm 31.3 32.2 19.3 49 7.8 E 13 24 7 13 1009.8 - 0.0
22/01:00pm 31.2 32.2 20.2 52 7.3 E 15 22 8 12 1010.3 - 0.0

Other Formats:

Comma delimited format used in spreadsheet applications
http://www.bom.gov.au/fwo/IDD60801/IDD60801.94140.axf

JavaScript Object Notation format (JSON) in row-major order
http://www.bom.gov.au/fwo/IDD60801/IDD60801.94140.json